KOEO

L O Simenstad Municipal Airport

Osceola, Wisconsin, USA
METAR KOEO 162235Z AUTO 04005KT 10SM CLR M07/M14 A3029 RMK AO2 T10711144
Observed Flight Rules
Jan-16 @ 22:35 UTC (11 minutes ago) Visual Flight Rules
Wind Visibility Clouds
40° at 5 knots 10 miles
  • Clear skies
Temperatures Readings
Current -7°C / 19°F
Dewpoint -14°C / 7°F
Humidity 58%
Altimeter 30.29" Hg
Pressure 1025.72 hPa
Elevation 275
METAR KOEO 162235Z AUTO 04005KT 10SM CLR M07/M14 A3029 RMK AO2 T10711144
Observed Flight Rules
Jan-16 @ 22:35 UTC
(11 minutes ago)
VFR
Wind Visibility
40° at 5 knots 10 miles
Clouds
  • Clear skies
Temperature Dewpoint
-7°C / 19°F -14°C / 7°F
Humidity Altimeter Pressure
58% 30.29" Hg 1025.72 hPa